sensor_id;sensor_type;location;lat;lon;timestamp;temperature;humidity
48488;DHT22;34289;48.572;13.378;2023-07-13T00:00:11;19.70;99.90
48488;DHT22;34289;48.572;13.378;2023-07-13T00:02:37;19.70;99.90
48488;DHT22;34289;48.572;13.378;2023-07-13T00:05:03;19.70;99.90
48488;DHT22;34289;48.572;13.378;2023-07-13T00:07:29;19.80;99.90
48488;DHT22;34289;48.572;13.378;2023-07-13T00:09:56;19.80;99.90
48488;DHT22;34289;48.572;13.378;2023-07-13T00:12:35;19.80;99.90
48488;DHT22;34289;48.572;13.378;2023-07-13T00:15:06;20.00;99.90
48488;DHT22;34289;48.572;13.378;2023-07-13T00:17:33;19.70;99.90
48488;DHT22;34289;48.572;13.378;2023-07-13T00:19:58;19.90;99.90
48488;DHT22;34289;48.572;13.378;2023-07-13T00:22:24;20.20;99.90
48488;DHT22;34289;48.572;13.378;2023-07-13T00:24:53;19.90;99.90
48488;DHT22;34289;48.572;13.378;2023-07-13T00:27:22;19.90;99.90
48488;DHT22;34289;48.572;13.378;2023-07-13T00:29:47;19.90;99.90
48488;DHT22;34289;48.572;13.378;2023-07-13T00:32:13;20.00;99.90
48488;DHT22;34289;48.572;13.378;2023-07-13T00:34:39;19.90;99.90
48488;DHT22;34289;48.572;13.378;2023-07-13T00:37:06;19.80;99.90
48488;DHT22;34289;48.572;13.378;2023-07-13T00:39:32;19.80;99.90
48488;DHT22;34289;48.572;13.378;2023-07-13T00:41:58;19.80;99.90
48488;DHT22;34289;48.572;13.378;2023-07-13T00:44:24;19.80;99.90
48488;DHT22;34289;48.572;13.378;2023-07-13T00:46:50;19.80;99.90
48488;DHT22;34289;48.572;13.378;2023-07-13T00:49:18;19.90;99.90
48488;DHT22;34289;48.572;13.378;2023-07-13T00:52:06;20.00;99.90
48488;DHT22;34289;48.572;13.378;2023-07-13T00:54:38;19.90;99.90
48488;DHT22;34289;48.572;13.378;2023-07-13T00:57:08;19.80;99.90
48488;DHT22;34289;48.572;13.378;2023-07-13T00:59:36;19.90;99.90
48488;DHT22;34289;48.572;13.378;2023-07-13T01:02:04;19.90;99.90
48488;DHT22;34289;48.572;13.378;2023-07-13T01:04:30;19.90;99.90
48488;DHT22;34289;48.572;13.378;2023-07-13T01:06:56;19.90;99.90
48488;DHT22;34289;48.572;13.378;2023-07-13T01:09:22;19.90;99.90
48488;DHT22;34289;48.572;13.378;2023-07-13T01:11:48;19.80;99.90
48488;DHT22;34289;48.572;13.378;2023-07-13T01:14:15;19.90;99.90
48488;DHT22;34289;48.572;13.378;2023-07-13T01:16:42;19.80;99.90
48488;DHT22;34289;48.572;13.378;2023-07-13T01:22:11;19.80;99.90
48488;DHT22;34289;48.572;13.378;2023-07-13T01:24:40;19.80;99.90
48488;DHT22;34289;48.572;13.378;2023-07-13T01:27:07;19.80;99.90
48488;DHT22;34289;48.572;13.378;2023-07-13T01:29:35;19.80;99.90
48488;DHT22;34289;48.572;13.378;2023-07-13T01:32:06;19.90;99.90
48488;DHT22;34289;48.572;13.378;2023-07-13T01:34:33;19.80;99.90
48488;DHT22;34289;48.572;13.378;2023-07-13T01:36:59;19.80;99.90
48488;DHT22;34289;48.572;13.378;2023-07-13T01:39:24;19.70;99.90
48488;DHT22;34289;48.572;13.378;2023-07-13T01:41:50;19.50;99.90
48488;DHT22;34289;48.572;13.378;2023-07-13T01:44:15;19.40;99.90
48488;DHT22;34289;48.572;13.378;2023-07-13T01:46:41;19.40;99.90
48488;DHT22;34289;48.572;13.378;2023-07-13T01:49:07;19.40;99.90
48488;DHT22;34289;48.572;13.378;2023-07-13T01:51:33;19.40;99.90
48488;DHT22;34289;48.572;13.378;2023-07-13T01:53:58;19.40;99.90
48488;DHT22;34289;48.572;13.378;2023-07-13T01:56:24;19.40;99.90
48488;DHT22;34289;48.572;13.378;2023-07-13T01:58:49;19.60;99.90
48488;DHT22;34289;48.572;13.378;2023-07-13T02:01:15;19.60;99.90
48488;DHT22;34289;48.572;13.378;2023-07-13T02:03:40;19.60;99.90
48488;DHT22;34289;48.572;13.378;2023-07-13T02:06:06;19.60;99.90
48488;DHT22;34289;48.572;13.378;2023-07-13T02:08:34;19.60;99.90
48488;DHT22;34289;48.572;13.378;2023-07-13T02:11:02;19.50;99.90
48488;DHT22;34289;48.572;13.378;2023-07-13T02:13:28;19.50;99.90
48488;DHT22;34289;48.572;13.378;2023-07-13T02:15:53;19.50;99.90
48488;DHT22;34289;48.572;13.378;2023-07-13T02:18:19;19.60;99.90
48488;DHT22;34289;48.572;13.378;2023-07-13T02:20:44;19.40;99.90
48488;DHT22;34289;48.572;13.378;2023-07-13T02:23:11;19.60;99.90
48488;DHT22;34289;48.572;13.378;2023-07-13T02:25:36;19.60;99.90
48488;DHT22;34289;48.572;13.378;2023-07-13T02:28:02;19.60;99.90
48488;DHT22;34289;48.572;13.378;2023-07-13T02:30:29;19.70;99.90
48488;DHT22;34289;48.572;13.378;2023-07-13T02:32:58;19.70;99.90
48488;DHT22;34289;48.572;13.378;2023-07-13T02:35:24;19.70;99.90
48488;DHT22;34289;48.572;13.378;2023-07-13T02:37:49;19.80;99.90
48488;DHT22;34289;48.572;13.378;2023-07-13T02:40:16;19.80;99.90
48488;DHT22;34289;48.572;13.378;2023-07-13T02:42:41;19.80;99.90
48488;DHT22;34289;48.572;13.378;2023-07-13T02:45:08;19.80;99.90
48488;DHT22;34289;48.572;13.378;2023-07-13T02:47:34;19.70;99.90
48488;DHT22;34289;48.572;13.378;2023-07-13T02:50:00;19.70;99.90
48488;DHT22;34289;48.572;13.378;2023-07-13T02:52:26;19.50;99.90
48488;DHT22;34289;48.572;13.378;2023-07-13T02:54:52;19.50;99.90
48488;DHT22;34289;48.572;13.378;2023-07-13T02:57:17;19.50;99.90
48488;DHT22;34289;48.572;13.378;2023-07-13T02:59:43;19.60;99.90
48488;DHT22;34289;48.572;13.378;2023-07-13T03:02:09;19.60;99.90
48488;DHT22;34289;48.572;13.378;2023-07-13T03:04:36;19.60;99.90
48488;DHT22;34289;48.572;13.378;2023-07-13T03:07:03;19.60;99.90
48488;DHT22;34289;48.572;13.378;2023-07-13T03:09:28;19.70;99.90
48488;DHT22;34289;48.572;13.378;2023-07-13T03:11:55;19.70;99.90
48488;DHT22;34289;48.572;13.378;2023-07-13T03:14:22;19.70;99.90
48488;DHT22;34289;48.572;13.378;2023-07-13T03:16:48;19.80;99.90
48488;DHT22;34289;48.572;13.378;2023-07-13T03:19:13;19.70;99.90
48488;DHT22;34289;48.572;13.378;2023-07-13T03:21:39;19.70;99.90
48488;DHT22;34289;48.572;13.378;2023-07-13T03:24:05;19.70;99.90
48488;DHT22;34289;48.572;13.378;2023-07-13T03:26:31;19.70;99.90
48488;DHT22;34289;48.572;13.378;2023-07-13T03:28:57;19.70;99.90
48488;DHT22;34289;48.572;13.378;2023-07-13T03:31:25;19.70;99.90
48488;DHT22;34289;48.572;13.378;2023-07-13T03:33:51;19.70;99.90
48488;DHT22;34289;48.572;13.378;2023-07-13T03:36:23;19.70;99.90
48488;DHT22;34289;48.572;13.378;2023-07-13T03:38:52;19.60;99.90
48488;DHT22;34289;48.572;13.378;2023-07-13T03:41:19;19.60;99.90
48488;DHT22;34289;48.572;13.378;2023-07-13T03:43:44;19.50;99.90
48488;DHT22;34289;48.572;13.378;2023-07-13T03:46:10;19.50;99.90
48488;DHT22;34289;48.572;13.378;2023-07-13T03:48:36;19.50;99.90
48488;DHT22;34289;48.572;13.378;2023-07-13T03:51:02;19.60;99.90
48488;DHT22;34289;48.572;13.378;2023-07-13T03:53:28;19.60;99.90
48488;DHT22;34289;48.572;13.378;2023-07-13T03:55:53;19.60;99.90
48488;DHT22;34289;48.572;13.378;2023-07-13T04:00:52;19.60;99.90
48488;DHT22;34289;48.572;13.378;2023-07-13T04:03:18;19.70;99.90
48488;DHT22;34289;48.572;13.378;2023-07-13T04:05:43;19.70;99.90
48488;DHT22;34289;48.572;13.378;2023-07-13T04:08:09;19.70;99.90
48488;DHT22;34289;48.572;13.378;2023-07-13T04:10:35;19.70;99.90
48488;DHT22;34289;48.572;13.378;2023-07-13T04:13:00;19.80;99.90
48488;DHT22;34289;48.572;13.378;2023-07-13T04:15:29;19.70;99.90
48488;DHT22;34289;48.572;13.378;2023-07-13T04:17:55;19.70;99.90
48488;DHT22;34289;48.572;13.378;2023-07-13T04:20:20;19.70;99.90
48488;DHT22;34289;48.572;13.378;2023-07-13T04:22:47;19.70;99.90
48488;DHT22;34289;48.572;13.378;2023-07-13T04:25:13;19.70;99.90
48488;DHT22;34289;48.572;13.378;2023-07-13T04:27:38;19.70;99.90
48488;DHT22;34289;48.572;13.378;2023-07-13T04:30:05;19.80;99.90
48488;DHT22;34289;48.572;13.378;2023-07-13T04:32:31;19.80;99.90
48488;DHT22;34289;48.572;13.378;2023-07-13T04:34:58;19.80;99.90
48488;DHT22;34289;48.572;13.378;2023-07-13T04:37:25;19.90;99.90
48488;DHT22;34289;48.572;13.378;2023-07-13T04:39:51;19.90;99.90
48488;DHT22;34289;48.572;13.378;2023-07-13T04:42:17;19.60;99.90
48488;DHT22;34289;48.572;13.378;2023-07-13T04:44:48;19.80;99.90
48488;DHT22;34289;48.572;13.378;2023-07-13T04:47:14;19.80;99.90
48488;DHT22;34289;48.572;13.378;2023-07-13T04:49:40;19.90;99.90
48488;DHT22;34289;48.572;13.378;2023-07-13T04:52:06;19.90;99.90
48488;DHT22;34289;48.572;13.378;2023-07-13T04:54:33;19.80;99.90
48488;DHT22;34289;48.572;13.378;2023-07-13T04:56:59;19.80;99.90
48488;DHT22;34289;48.572;13.378;2023-07-13T04:59:24;19.90;99.90
48488;DHT22;34289;48.572;13.378;2023-07-13T05:01:50;19.90;99.90
48488;DHT22;34289;48.572;13.378;2023-07-13T05:04:16;19.90;99.90
48488;DHT22;34289;48.572;13.378;2023-07-13T05:06:42;19.90;99.90
48488;DHT22;34289;48.572;13.378;2023-07-13T05:09:08;19.90;99.90
48488;DHT22;34289;48.572;13.378;2023-07-13T05:11:33;19.80;99.90
48488;DHT22;34289;48.572;13.378;2023-07-13T05:13:59;19.80;99.90
48488;DHT22;34289;48.572;13.378;2023-07-13T05:16:26;19.90;99.90
48488;DHT22;34289;48.572;13.378;2023-07-13T05:18:53;20.00;99.90
48488;DHT22;34289;48.572;13.378;2023-07-13T05:21:18;20.00;99.90
48488;DHT22;34289;48.572;13.378;2023-07-13T05:23:44;20.10;99.90
48488;DHT22;34289;48.572;13.378;2023-07-13T05:26:10;20.10;99.90
48488;DHT22;34289;48.572;13.378;2023-07-13T05:28:36;20.20;99.90
48488;DHT22;34289;48.572;13.378;2023-07-13T05:31:01;20.10;99.90
48488;DHT22;34289;48.572;13.378;2023-07-13T05:33:27;20.10;99.90
48488;DHT22;34289;48.572;13.378;2023-07-13T05:35:53;20.20;99.90
48488;DHT22;34289;48.572;13.378;2023-07-13T05:38:19;20.20;99.90
48488;DHT22;34289;48.572;13.378;2023-07-13T05:40:46;20.30;99.90
48488;DHT22;34289;48.572;13.378;2023-07-13T05:43:12;20.30;99.90
48488;DHT22;34289;48.572;13.378;2023-07-13T05:45:38;20.40;99.90
48488;DHT22;34289;48.572;13.378;2023-07-13T05:48:04;20.30;99.90
48488;DHT22;34289;48.572;13.378;2023-07-13T05:50:30;20.30;99.90
48488;DHT22;34289;48.572;13.378;2023-07-13T05:52:55;20.40;99.90
48488;DHT22;34289;48.572;13.378;2023-07-13T05:55:22;20.40;99.90
48488;DHT22;34289;48.572;13.378;2023-07-13T05:57:47;20.40;99.90
48488;DHT22;34289;48.572;13.378;2023-07-13T06:00:13;20.90;99.90
48488;DHT22;34289;48.572;13.378;2023-07-13T06:02:39;20.50;99.90
48488;DHT22;34289;48.572;13.378;2023-07-13T06:05:05;20.40;99.90
48488;DHT22;34289;48.572;13.378;2023-07-13T06:07:31;20.30;99.90
48488;DHT22;34289;48.572;13.378;2023-07-13T06:09:56;20.20;99.90
48488;DHT22;34289;48.572;13.378;2023-07-13T06:12:22;20.10;99.90
48488;DHT22;34289;48.572;13.378;2023-07-13T06:14:48;20.30;99.90
48488;DHT22;34289;48.572;13.378;2023-07-13T06:17:13;20.50;99.90
48488;DHT22;34289;48.572;13.378;2023-07-13T06:19:39;20.50;99.90
48488;DHT22;34289;48.572;13.378;2023-07-13T06:22:05;20.60;99.90
48488;DHT22;34289;48.572;13.378;2023-07-13T06:24:31;20.80;99.90
48488;DHT22;34289;48.572;13.378;2023-07-13T06:26:56;20.90;99.90
48488;DHT22;34289;48.572;13.378;2023-07-13T06:29:22;21.00;99.90
48488;DHT22;34289;48.572;13.378;2023-07-13T06:31:48;21.00;99.90
48488;DHT22;34289;48.572;13.378;2023-07-13T06:34:13;21.10;99.90
48488;DHT22;34289;48.572;13.378;2023-07-13T06:36:39;21.10;99.90
48488;DHT22;34289;48.572;13.378;2023-07-13T06:39:05;21.10;99.90
48488;DHT22;34289;48.572;13.378;2023-07-13T06:41:31;21.00;99.90
48488;DHT22;34289;48.572;13.378;2023-07-13T06:43:58;21.00;99.90
48488;DHT22;34289;48.572;13.378;2023-07-13T06:46:25;21.10;99.90
48488;DHT22;34289;48.572;13.378;2023-07-13T06:48:51;21.10;99.90
48488;DHT22;34289;48.572;13.378;2023-07-13T06:51:17;21.20;99.90
48488;DHT22;34289;48.572;13.378;2023-07-13T06:53:43;21.40;99.90
48488;DHT22;34289;48.572;13.378;2023-07-13T06:56:09;21.50;99.90
48488;DHT22;34289;48.572;13.378;2023-07-13T06:58:36;21.60;99.90
48488;DHT22;34289;48.572;13.378;2023-07-13T07:01:03;21.70;99.90
48488;DHT22;34289;48.572;13.378;2023-07-13T07:03:29;21.90;99.90
48488;DHT22;34289;48.572;13.378;2023-07-13T07:06:06;22.00;99.90
48488;DHT22;34289;48.572;13.378;2023-07-13T07:08:35;22.20;99.90
48488;DHT22;34289;48.572;13.378;2023-07-13T07:11:01;22.20;99.90
48488;DHT22;34289;48.572;13.378;2023-07-13T07:13:26;21.90;99.90
48488;DHT22;34289;48.572;13.378;2023-07-13T07:15:53;22.20;99.90
48488;DHT22;34289;48.572;13.378;2023-07-13T07:18:19;22.40;99.90
48488;DHT22;34289;48.572;13.378;2023-07-13T07:20:45;22.60;99.90
48488;DHT22;34289;48.572;13.378;2023-07-13T07:23:10;22.80;99.90
48488;DHT22;34289;48.572;13.378;2023-07-13T07:25:36;23.30;99.90
48488;DHT22;34289;48.572;13.378;2023-07-13T07:28:07;23.90;99.90
48488;DHT22;34289;48.572;13.378;2023-07-13T07:30:33;24.10;99.90
48488;DHT22;34289;48.572;13.378;2023-07-13T07:32:59;24.20;99.90
48488;DHT22;34289;48.572;13.378;2023-07-13T07:35:25;24.20;99.90
48488;DHT22;34289;48.572;13.378;2023-07-13T07:37:50;24.10;99.90
48488;DHT22;34289;48.572;13.378;2023-07-13T07:40:16;24.00;99.90
48488;DHT22;34289;48.572;13.378;2023-07-13T07:42:42;23.80;99.90
48488;DHT22;34289;48.572;13.378;2023-07-13T07:45:07;23.70;99.90
48488;DHT22;34289;48.572;13.378;2023-07-13T07:47:33;23.70;99.90
48488;DHT22;34289;48.572;13.378;2023-07-13T07:50:00;24.90;99.90
48488;DHT22;34289;48.572;13.378;2023-07-13T07:52:25;23.70;99.90
48488;DHT22;34289;48.572;13.378;2023-07-13T07:54:51;23.70;99.90
48488;DHT22;34289;48.572;13.378;2023-07-13T07:57:16;23.80;99.90
48488;DHT22;34289;48.572;13.378;2023-07-13T07:59:42;23.70;99.90
48488;DHT22;34289;48.572;13.378;2023-07-13T08:02:10;23.70;99.90
48488;DHT22;34289;48.572;13.378;2023-07-13T08:04:36;23.70;99.90
48488;DHT22;34289;48.572;13.378;2023-07-13T08:07:02;23.50;99.90
48488;DHT22;34289;48.572;13.378;2023-07-13T08:09:28;23.50;99.90
48488;DHT22;34289;48.572;13.378;2023-07-13T08:11:54;23.70;99.90
48488;DHT22;34289;48.572;13.378;2023-07-13T08:14:20;23.80;99.90
48488;DHT22;34289;48.572;13.378;2023-07-13T08:16:46;23.70;99.90
48488;DHT22;34289;48.572;13.378;2023-07-13T08:19:12;23.70;99.90
48488;DHT22;34289;48.572;13.378;2023-07-13T08:21:37;23.60;99.90
48488;DHT22;34289;48.572;13.378;2023-07-13T08:24:03;23.40;99.90
48488;DHT22;34289;48.572;13.378;2023-07-13T08:26:29;23.40;99.90
48488;DHT22;34289;48.572;13.378;2023-07-13T08:28:55;23.60;99.90
48488;DHT22;34289;48.572;13.378;2023-07-13T08:31:20;23.50;99.90
48488;DHT22;34289;48.572;13.378;2023-07-13T08:33:46;23.50;99.90
48488;DHT22;34289;48.572;13.378;2023-07-13T08:36:12;23.50;99.90
48488;DHT22;34289;48.572;13.378;2023-07-13T08:38:37;23.50;99.90
48488;DHT22;34289;48.572;13.378;2023-07-13T08:41:11;23.50;99.90
48488;DHT22;34289;48.572;13.378;2023-07-13T08:43:38;23.40;99.90
48488;DHT22;34289;48.572;13.378;2023-07-13T08:46:33;23.30;99.90
48488;DHT22;34289;48.572;13.378;2023-07-13T08:49:14;23.40;99.90
48488;DHT22;34289;48.572;13.378;2023-07-13T08:52:01;23.40;99.90
48488;DHT22;34289;48.572;13.378;2023-07-13T08:54:28;23.40;99.90
48488;DHT22;34289;48.572;13.378;2023-07-13T08:56:57;23.50;99.90
48488;DHT22;34289;48.572;13.378;2023-07-13T08:59:26;23.70;99.90
48488;DHT22;34289;48.572;13.378;2023-07-13T09:04:36;23.80;99.90
48488;DHT22;34289;48.572;13.378;2023-07-13T09:14:59;24.30;99.90
48488;DHT22;34289;48.572;13.378;2023-07-13T09:17:30;24.10;99.90
48488;DHT22;34289;48.572;13.378;2023-07-13T09:22:37;23.60;99.90
48488;DHT22;34289;48.572;13.378;2023-07-13T09:25:29;23.60;99.90
48488;DHT22;34289;48.572;13.378;2023-07-13T09:27:57;23.50;99.90
48488;DHT22;34289;48.572;13.378;2023-07-13T09:30:40;23.60;99.90
48488;DHT22;34289;48.572;13.378;2023-07-13T09:33:08;23.80;99.90
48488;DHT22;34289;48.572;13.378;2023-07-13T09:35:35;23.50;99.90
48488;DHT22;34289;48.572;13.378;2023-07-13T09:38:20;23.50;99.90
48488;DHT22;34289;48.572;13.378;2023-07-13T09:43:20;23.80;99.90
48488;DHT22;34289;48.572;13.378;2023-07-13T09:45:46;24.00;99.90
48488;DHT22;34289;48.572;13.378;2023-07-13T09:48:15;24.10;99.90
48488;DHT22;34289;48.572;13.378;2023-07-13T09:50:42;24.30;99.90
48488;DHT22;34289;48.572;13.378;2023-07-13T09:53:16;24.50;99.90
48488;DHT22;34289;48.572;13.378;2023-07-13T09:55:45;24.70;99.90
48488;DHT22;34289;48.572;13.378;2023-07-13T09:58:15;24.80;99.90
48488;DHT22;34289;48.572;13.378;2023-07-13T10:00:43;25.10;99.90
48488;DHT22;34289;48.572;13.378;2023-07-13T10:03:20;25.30;99.90
48488;DHT22;34289;48.572;13.378;2023-07-13T10:05:48;25.60;99.90
48488;DHT22;34289;48.572;13.378;2023-07-13T10:08:18;25.70;99.90
48488;DHT22;34289;48.572;13.378;2023-07-13T10:10:44;25.80;99.90
48488;DHT22;34289;48.572;13.378;2023-07-13T10:13:26;25.30;99.90
48488;DHT22;34289;48.572;13.378;2023-07-13T10:15:53;25.20;99.90
48488;DHT22;34289;48.572;13.378;2023-07-13T10:18:20;25.00;99.90
48488;DHT22;34289;48.572;13.378;2023-07-13T10:20:46;24.50;99.90
48488;DHT22;34289;48.572;13.378;2023-07-13T10:23:21;24.10;99.90
48488;DHT22;34289;48.572;13.378;2023-07-13T10:25:49;24.10;99.90
48488;DHT22;34289;48.572;13.378;2023-07-13T10:28:27;24.30;99.90
48488;DHT22;34289;48.572;13.378;2023-07-13T10:30:54;24.60;99.90
48488;DHT22;34289;48.572;13.378;2023-07-13T10:33:22;24.20;99.90
48488;DHT22;34289;48.572;13.378;2023-07-13T10:35:49;24.10;99.90
48488;DHT22;34289;48.572;13.378;2023-07-13T10:38:22;24.30;99.90
48488;DHT22;34289;48.572;13.378;2023-07-13T10:41:03;24.50;99.90
48488;DHT22;34289;48.572;13.378;2023-07-13T10:43:36;24.80;99.90
48488;DHT22;34289;48.572;13.378;2023-07-13T10:46:08;25.00;99.90
48488;DHT22;34289;48.572;13.378;2023-07-13T10:48:35;25.10;99.90
48488;DHT22;34289;48.572;13.378;2023-07-13T10:51:04;25.10;99.90
48488;DHT22;34289;48.572;13.378;2023-07-13T10:53:34;25.10;99.90
48488;DHT22;34289;48.572;13.378;2023-07-13T10:58:42;25.20;99.90
48488;DHT22;34289;48.572;13.378;2023-07-13T11:01:10;24.90;99.90
48488;DHT22;34289;48.572;13.378;2023-07-13T11:04:00;24.80;99.90
48488;DHT22;34289;48.572;13.378;2023-07-13T11:08:56;24.80;99.90
48488;DHT22;34289;48.572;13.378;2023-07-13T11:18:52;25.00;99.60
48488;DHT22;34289;48.572;13.378;2023-07-13T11:21:23;25.00;99.90
48488;DHT22;34289;48.572;13.378;2023-07-13T11:24:22;24.70;99.80
48488;DHT22;34289;48.572;13.378;2023-07-13T11:31:52;23.50;99.90
48488;DHT22;34289;48.572;13.378;2023-07-13T11:34:35;23.60;99.90
48488;DHT22;34289;48.572;13.378;2023-07-13T11:37:02;23.70;99.90
48488;DHT22;34289;48.572;13.378;2023-07-13T11:39:35;23.80;99.90
48488;DHT22;34289;48.572;13.378;2023-07-13T11:42:07;23.90;99.90
48488;DHT22;34289;48.572;13.378;2023-07-13T11:44:34;23.80;99.90
48488;DHT22;34289;48.572;13.378;2023-07-13T11:47:09;23.80;99.90
48488;DHT22;34289;48.572;13.378;2023-07-13T11:49:48;23.90;99.90
48488;DHT22;34289;48.572;13.378;2023-07-13T11:52:17;24.00;99.90
48488;DHT22;34289;48.572;13.378;2023-07-13T11:54:54;24.00;99.90
48488;DHT22;34289;48.572;13.378;2023-07-13T11:57:25;24.10;99.90
48488;DHT22;34289;48.572;13.378;2023-07-13T11:59:54;24.40;99.90
48488;DHT22;34289;48.572;13.378;2023-07-13T12:02:40;24.60;99.90
48488;DHT22;34289;48.572;13.378;2023-07-13T12:05:11;24.60;99.90
48488;DHT22;34289;48.572;13.378;2023-07-13T12:07:38;24.60;99.90
48488;DHT22;34289;48.572;13.378;2023-07-13T12:10:26;24.50;99.90
48488;DHT22;34289;48.572;13.378;2023-07-13T12:13:00;24.80;99.90
48488;DHT22;34289;48.572;13.378;2023-07-13T12:18:01;25.60;99.90
48488;DHT22;34289;48.572;13.378;2023-07-13T12:20:33;26.10;99.00
48488;DHT22;34289;48.572;13.378;2023-07-13T12:23:00;25.70;99.30
48488;DHT22;34289;48.572;13.378;2023-07-13T12:25:28;25.80;98.90
48488;DHT22;34289;48.572;13.378;2023-07-13T12:27:55;25.50;99.30
48488;DHT22;34289;48.572;13.378;2023-07-13T12:30:28;25.20;99.10
48488;DHT22;34289;48.572;13.378;2023-07-13T12:33:08;25.40;99.90
48488;DHT22;34289;48.572;13.378;2023-07-13T12:35:42;25.80;99.40
48488;DHT22;34289;48.572;13.378;2023-07-13T12:38:10;25.80;97.80
48488;DHT22;34289;48.572;13.378;2023-07-13T12:40:37;25.70;97.70
48488;DHT22;34289;48.572;13.378;2023-07-13T12:43:03;25.80;99.10
48488;DHT22;34289;48.572;13.378;2023-07-13T12:45:30;26.20;98.10
48488;DHT22;34289;48.572;13.378;2023-07-13T12:47:59;26.30;97.10
48488;DHT22;34289;48.572;13.378;2023-07-13T12:50:30;26.20;99.90
48488;DHT22;34289;48.572;13.378;2023-07-13T12:53:02;26.10;96.70
48488;DHT22;34289;48.572;13.378;2023-07-13T12:55:29;25.90;97.50
48488;DHT22;34289;48.572;13.378;2023-07-13T12:57:59;26.10;97.30
48488;DHT22;34289;48.572;13.378;2023-07-13T13:00:32;26.40;97.00
48488;DHT22;34289;48.572;13.378;2023-07-13T13:03:04;26.60;98.00
48488;DHT22;34289;48.572;13.378;2023-07-13T13:05:32;26.90;96.40
48488;DHT22;34289;48.572;13.378;2023-07-13T13:07:58;27.10;96.90
48488;DHT22;34289;48.572;13.378;2023-07-13T13:10:24;27.20;96.50
48488;DHT22;34289;48.572;13.378;2023-07-13T13:12:50;27.40;95.60
48488;DHT22;34289;48.572;13.378;2023-07-13T13:15:16;27.40;95.40
48488;DHT22;34289;48.572;13.378;2023-07-13T13:17:42;27.30;95.10
48488;DHT22;34289;48.572;13.378;2023-07-13T13:20:15;27.50;96.20
48488;DHT22;34289;48.572;13.378;2023-07-13T13:22:41;27.60;95.60
48488;DHT22;34289;48.572;13.378;2023-07-13T13:25:10;27.70;96.00
48488;DHT22;34289;48.572;13.378;2023-07-13T13:27:36;27.90;95.60
48488;DHT22;34289;48.572;13.378;2023-07-13T13:30:02;27.80;95.40
48488;DHT22;34289;48.572;13.378;2023-07-13T13:32:28;27.90;95.20
48488;DHT22;34289;48.572;13.378;2023-07-13T13:34:54;27.80;94.80
48488;DHT22;34289;48.572;13.378;2023-07-13T13:37:23;27.60;94.80
48488;DHT22;34289;48.572;13.378;2023-07-13T13:39:50;27.60;95.90
48488;DHT22;34289;48.572;13.378;2023-07-13T13:42:17;27.80;95.90
48488;DHT22;34289;48.572;13.378;2023-07-13T13:44:43;27.70;95.50
48488;DHT22;34289;48.572;13.378;2023-07-13T13:47:28;27.80;95.60
48488;DHT22;34289;48.572;13.378;2023-07-13T13:49:55;28.00;94.30
48488;DHT22;34289;48.572;13.378;2023-07-13T13:52:20;28.10;94.90
48488;DHT22;34289;48.572;13.378;2023-07-13T13:54:46;28.20;95.50
48488;DHT22;34289;48.572;13.378;2023-07-13T13:57:12;27.60;93.70
48488;DHT22;34289;48.572;13.378;2023-07-13T13:59:38;26.80;95.30
48488;DHT22;34289;48.572;13.378;2023-07-13T14:02:21;26.70;96.00
48488;DHT22;34289;48.572;13.378;2023-07-13T14:04:50;27.00;96.60
48488;DHT22;34289;48.572;13.378;2023-07-13T14:07:16;27.40;96.00
48488;DHT22;34289;48.572;13.378;2023-07-13T14:09:42;27.60;94.80
48488;DHT22;34289;48.572;13.378;2023-07-13T14:12:10;27.50;95.00
48488;DHT22;34289;48.572;13.378;2023-07-13T14:14:37;27.30;95.80
48488;DHT22;34289;48.572;13.378;2023-07-13T14:17:03;27.30;96.20
48488;DHT22;34289;48.572;13.378;2023-07-13T14:19:29;27.40;96.00
48488;DHT22;34289;48.572;13.378;2023-07-13T14:21:55;27.50;94.90
48488;DHT22;34289;48.572;13.378;2023-07-13T14:24:21;27.30;95.10
48488;DHT22;34289;48.572;13.378;2023-07-13T14:26:47;27.50;95.20
48488;DHT22;34289;48.572;13.378;2023-07-13T14:29:15;27.50;95.20
48488;DHT22;34289;48.572;13.378;2023-07-13T14:31:42;27.70;95.70
48488;DHT22;34289;48.572;13.378;2023-07-13T14:34:10;27.20;94.90
48488;DHT22;34289;48.572;13.378;2023-07-13T14:36:44;26.50;95.50
48488;DHT22;34289;48.572;13.378;2023-07-13T14:39:31;26.50;95.70
48488;DHT22;34289;48.572;13.378;2023-07-13T14:41:57;26.50;95.50
48488;DHT22;34289;48.572;13.378;2023-07-13T14:44:28;26.70;95.70
48488;DHT22;34289;48.572;13.378;2023-07-13T14:46:55;26.90;95.90
48488;DHT22;34289;48.572;13.378;2023-07-13T14:49:31;27.10;95.40
48488;DHT22;34289;48.572;13.378;2023-07-13T14:52:18;27.20;94.90
48488;DHT22;34289;48.572;13.378;2023-07-13T14:54:45;27.30;95.80
48488;DHT22;34289;48.572;13.378;2023-07-13T14:57:16;27.20;94.90
48488;DHT22;34289;48.572;13.378;2023-07-13T14:59:43;27.10;94.80
48488;DHT22;34289;48.572;13.378;2023-07-13T15:02:32;27.10;95.10
48488;DHT22;34289;48.572;13.378;2023-07-13T15:04:59;27.10;95.40
48488;DHT22;34289;48.572;13.378;2023-07-13T15:07:25;26.90;94.70
48488;DHT22;34289;48.572;13.378;2023-07-13T15:09:51;26.80;94.70
48488;DHT22;34289;48.572;13.378;2023-07-13T15:12:17;26.70;95.30
48488;DHT22;34289;48.572;13.378;2023-07-13T15:14:43;26.60;94.60
48488;DHT22;34289;48.572;13.378;2023-07-13T15:17:26;26.70;95.10
48488;DHT22;34289;48.572;13.378;2023-07-13T15:19:52;26.50;94.70
48488;DHT22;34289;48.572;13.378;2023-07-13T15:22:18;26.50;95.20
48488;DHT22;34289;48.572;13.378;2023-07-13T15:24:44;26.40;95.70
48488;DHT22;34289;48.572;13.378;2023-07-13T15:27:13;26.40;94.60
48488;DHT22;34289;48.572;13.378;2023-07-13T15:29:39;26.40;94.70
48488;DHT22;34289;48.572;13.378;2023-07-13T15:32:13;26.20;94.40
48488;DHT22;34289;48.572;13.378;2023-07-13T15:34:39;25.90;95.10
48488;DHT22;34289;48.572;13.378;2023-07-13T15:37:16;26.00;94.70
48488;DHT22;34289;48.572;13.378;2023-07-13T15:39:43;26.30;95.00
48488;DHT22;34289;48.572;13.378;2023-07-13T15:42:15;26.50;95.40
48488;DHT22;34289;48.572;13.378;2023-07-13T15:44:41;26.50;94.10
48488;DHT22;34289;48.572;13.378;2023-07-13T15:47:11;26.50;94.10
48488;DHT22;34289;48.572;13.378;2023-07-13T15:49:38;26.60;94.90
48488;DHT22;34289;48.572;13.378;2023-07-13T15:52:04;26.70;93.90
48488;DHT22;34289;48.572;13.378;2023-07-13T15:54:31;26.60;93.50
48488;DHT22;34289;48.572;13.378;2023-07-13T15:57:00;26.40;94.10
48488;DHT22;34289;48.572;13.378;2023-07-13T15:59:26;26.30;94.60
48488;DHT22;34289;48.572;13.378;2023-07-13T16:01:52;26.40;94.00